Time;durP1;ratioP1;P1;durP2;ratioP2;P2;SDS_P1;SDS_P2;PMS_P1;PMS_P2;Temp;Humidity;BMP_temperature;BMP_pressure;BME280_temperature;BME280_humidity;BME280_pressure;Samples;Min_cycle;Max_cycle;Signal;HPM_P1;HPM_P2
2023/03/09 00:01:17;;;;;;;18.70;10.70;;;;;;;0.41;100.00;98527.94;4948136;28;20700;-85
2023/03/09 00:03:44;;;;;;;21.37;11.37;;;;;;;0.39;100.00;98528.03;4945907;29;20209;-85
2023/03/09 00:06:10;;;;;;;19.87;10.80;;;;;;;0.40;100.00;98536.75;4956391;28;20600;-85
2023/03/09 00:08:37;;;;;;;17.50;10.27;;;;;;;0.42;100.00;98534.88;4955580;28;20329;-85
2023/03/09 00:11:05;;;;;;;18.27;10.80;;;;;;;0.41;100.00;98539.28;4960249;28;20320;-84
2023/03/09 00:13:33;;;;;;;17.50;11.87;;;;;;;0.42;100.00;98530.50;4943346;29;20201;-85
2023/03/09 00:16:08;;;;;;;20.50;10.80;;;;;;;0.42;100.00;98517.41;4941861;29;20236;-84
2023/03/09 00:18:34;;;;;;;19.73;11.80;;;;;;;0.42;100.00;98508.69;4945001;29;20209;-84
2023/03/09 00:21:02;;;;;;;20.53;12.63;;;;;;;0.42;100.00;98506.91;4951188;29;20220;-84
2023/03/09 00:23:29;;;;;;;20.10;12.43;;;;;;;0.42;100.00;98506.91;4953728;29;20222;-85
2023/03/09 00:25:56;;;;;;;23.47;12.70;;;;;;;0.41;100.00;98502.63;4948493;29;20217;-84
2023/03/09 00:28:22;;;;;;;23.53;13.53;;;;;;;0.42;100.00;98501.69;4952530;29;20209;-84
2023/03/09 00:30:50;;;;;;;22.63;13.47;;;;;;;0.44;100.00;98501.59;4946972;29;20244;-86
2023/03/09 00:33:16;;;;;;;23.53;13.47;;;;;;;0.43;100.00;98503.38;4946621;29;20209;-85
2023/03/09 00:35:43;;;;;;;25.40;13.87;;;;;;;0.44;100.00;98497.22;4947863;29;20313;-86
2023/03/09 00:38:09;;;;;;;25.17;14.20;;;;;;;0.44;100.00;98494.59;4940596;29;20698;-85
2023/03/09 00:40:37;;;;;;;23.13;13.20;;;;;;;0.45;100.00;98490.19;4940032;29;20209;-85
2023/03/09 00:43:04;;;;;;;18.57;11.83;;;;;;;0.43;100.00;98500.75;4941168;29;20206;-84
2023/03/09 00:45:31;;;;;;;16.80;9.93;;;;;;;0.44;100.00;98494.59;4940305;29;20673;-84
2023/03/09 00:47:59;;;;;;;18.40;10.10;;;;;;;0.44;100.00;98496.38;4954607;29;20220;-84
2023/03/09 00:50:26;;;;;;;16.03;9.77;;;;;;;0.41;100.00;98486.91;4959636;29;20229;-84
2023/03/09 00:52:52;;;;;;;16.77;9.97;;;;;;;0.43;100.00;98490.28;4960134;29;20213;-85
2023/03/09 00:55:19;;;;;;;12.93;8.80;;;;;;;0.42;100.00;98485.97;4959836;29;20233;-84
2023/03/09 00:57:46;;;;;;;12.17;7.73;;;;;;;0.41;100.00;98483.44;4959542;29;20215;-85
2023/03/09 01:00:13;;;;;;;12.00;7.93;;;;;;;0.38;100.00;98486.22;4959746;29;20211;-84
2023/03/09 01:02:40;;;;;;;14.53;9.20;;;;;;;0.39;100.00;98482.69;4959748;29;20287;-84
2023/03/09 01:05:12;;;;;;;14.27;8.97;;;;;;;0.38;100.00;98475.75;4959478;29;20209;-84
2023/03/09 01:07:38;;;;;;;15.33;8.80;;;;;;;0.38;100.00;98471.38;4959588;29;20190;-84
2023/03/09 01:10:07;;;;;;;13.23;8.67;;;;;;;0.37;100.00;98471.44;4952201;28;20375;-84
2023/03/09 01:12:36;;;;;;;14.50;9.30;;;;;;;0.36;100.00;98475.03;4939823;29;20213;-86
2023/03/09 01:15:05;;;;;;;13.00;8.80;;;;;;;0.34;100.00;98464.63;4939818;29;20590;-85
2023/03/09 01:17:32;;;;;;;13.63;8.63;;;;;;;0.33;100.00;98462.94;4939966;29;20204;-85
2023/03/09 01:20:00;;;;;;;14.53;9.23;;;;;;;0.31;100.00;98449.09;4939400;29;20715;-84
2023/03/09 01:22:29;;;;;;;15.47;9.30;;;;;;;0.33;100.00;98447.25;4941812;29;20206;-86
2023/03/09 01:24:55;;;;;;;12.10;8.60;;;;;;;0.32;100.00;98446.38;4959020;29;20683;-84
2023/03/09 01:27:22;;;;;;;12.37;8.13;;;;;;;0.34;100.00;98438.44;4960150;29;20296;-85
2023/03/09 01:29:49;;;;;;;15.90;9.70;;;;;;;0.31;100.00;98428.16;4957844;28;20316;-85
2023/03/09 01:32:16;;;;;;;12.90;8.70;;;;;;;0.31;100.00;98431.63;4948324;29;20212;-84
2023/03/09 01:34:42;;;;;;;12.57;8.60;;;;;;;0.32;100.00;98429.84;4972668;28;20254;-84
2023/03/09 01:37:09;;;;;;;12.97;8.80;;;;;;;0.33;100.00;98426.28;4962580;28;20711;-84
2023/03/09 01:39:37;;;;;;;11.87;8.40;;;;;;;0.31;100.00;98415.91;4952574;28;20201;-86
2023/03/09 01:42:03;;;;;;;13.30;9.20;;;;;;;0.32;100.00;98408.91;4947860;29;20205;-84
2023/03/09 01:44:30;;;;;;;16.93;9.20;;;;;;;0.31;100.00;98400.19;4958286;28;20205;-84
2023/03/09 01:46:57;;;;;;;12.13;7.40;;;;;;;0.32;100.00;98398.41;4970131;28;20229;-84
2023/03/09 01:49:31;;;;;;;12.47;8.53;;;;;;;0.29;100.00;98402.06;4969065;28;20218;-84
2023/03/09 01:52:04;;;;;;;14.60;8.77;;;;;;;0.30;100.00;98403.75;4953374;28;20206;-84
2023/03/09 01:54:36;;;;;;;14.73;8.90;;;;;;;0.32;100.00;98414.13;4959824;28;20205;-85
2023/03/09 01:57:09;;;;;;;13.70;8.57;;;;;;;0.32;100.00;98414.13;4946137;29;20226;-84
2023/03/09 01:59:37;;;;;;;13.97;8.97;;;;;;;0.30;100.00;98410.75;4955115;29;20193;-84
2023/03/09 02:02:05;;;;;;;14.07;9.00;;;;;;;0.30;100.00;98426.47;4953279;29;20690;-86
2023/03/09 02:04:36;;;;;;;13.50;8.50;;;;;;;0.28;100.00;98429.16;4947894;29;20216;-85
2023/03/09 02:07:03;;;;;;;12.83;8.17;;;;;;;0.28;100.00;98436.19;4949136;28;20645;-84
2023/03/09 02:09:38;;;;;;;14.23;8.83;;;;;;;0.29;100.00;98432.63;4949423;28;20216;-86
2023/03/09 02:12:08;;;;;;;14.63;7.53;;;;;;;0.28;100.00;98439.63;4949839;29;20213;-84
2023/03/09 02:14:36;;;;;;;15.53;9.53;;;;;;;0.29;100.00;98424.78;4948147;29;20213;-84
2023/03/09 02:17:02;;;;;;;16.57;9.90;;;;;;;0.28;100.00;98436.19;4946047;29;20251;-84
2023/03/09 02:19:39;;;;;;;16.80;10.13;;;;;;;0.28;100.00;98436.19;4943154;29;20213;-84
2023/03/09 02:22:06;;;;;;;14.50;9.03;;;;;;;0.30;100.00;98431.69;4951239;29;20585;-84
2023/03/09 02:24:42;;;;;;;19.30;9.30;;;;;;;0.30;100.00;98439.56;4956434;29;20573;-85
2023/03/09 02:27:14;;;;;;;15.77;9.10;;;;;;;0.31;100.00;98433.38;4949691;29;20686;-84
2023/03/09 02:29:41;;;;;;;19.40;11.30;;;;;;;0.31;100.00;98451.72;4950101;29;20198;-84
2023/03/09 02:32:07;;;;;;;23.87;11.80;;;;;;;0.29;100.00;98450.94;4957765;29;20570;-83
2023/03/09 02:34:35;;;;;;;21.67;10.90;;;;;;;0.29;100.00;98453.56;4946738;29;20219;-83
2023/03/09 02:37:01;;;;;;;18.77;11.20;;;;;;;0.29;100.00;98450.94;4944713;29;20224;-84
2023/03/09 02:39:35;;;;;;;19.37;12.10;;;;;;;0.28;100.00;98449.25;4949126;29;20215;-83
2023/03/09 02:42:03;;;;;;;23.77;13.07;;;;;;;0.27;100.00;98453.66;4957293;29;20205;-84
2023/03/09 02:44:33;;;;;;;18.37;11.47;;;;;;;0.26;100.00;98462.44;4948217;28;20663;-83
2023/03/09 02:47:00;;;;;;;22.33;11.43;;;;;;;0.24;100.00;98453.81;4973185;28;20252;-84
2023/03/09 02:49:27;;;;;;;16.77;10.67;;;;;;;0.25;100.00;98454.66;4958584;28;20204;-84
2023/03/09 02:51:54;;;;;;;19.83;11.70;;;;;;;0.24;100.00;98451.19;4957715;28;20244;-83
2023/03/09 02:54:23;;;;;;;17.67;10.43;;;;;;;0.22;100.00;98450.44;4957907;29;20292;-84
2023/03/09 02:56:50;;;;;;;17.97;10.73;;;;;;;0.21;100.00;98447.91;4957069;28;20731;-85
2023/03/09 02:59:16;;;;;;;18.57;11.67;;;;;;;0.22;100.00;98460.06;4949235;29;20201;-85
2023/03/09 03:01:44;;;;;;;17.00;10.90;;;;;;;0.19;100.00;98455.00;4957686;29;20205;-84
2023/03/09 03:04:11;;;;;;;17.37;10.73;;;;;;;0.19;100.00;98458.47;4955577;29;20605;-85
2023/03/09 03:06:39;;;;;;;19.20;11.30;;;;;;;0.19;100.00;98460.22;4938651;29;20225;-85
2023/03/09 03:09:06;;;;;;;18.10;11.53;;;;;;;0.17;100.00;98457.72;4937366;29;20206;-85
2023/03/09 03:11:33;;;;;;;17.67;11.17;;;;;;;0.19;100.00;98466.31;4945599;29;20237;-86
2023/03/09 03:13:59;;;;;;;17.30;10.50;;;;;;;0.18;100.00;98456.78;4949722;29;20240;-85
2023/03/09 03:16:26;;;;;;;16.57;10.13;;;;;;;0.14;100.00;98457.91;4955282;29;20243;-85
2023/03/09 03:18:54;;;;;;;18.03;11.13;;;;;;;0.15;100.00;98448.28;4948549;29;20235;-86
2023/03/09 03:21:20;;;;;;;16.87;9.60;;;;;;;0.16;100.00;98452.59;4955446;29;20192;-85
2023/03/09 03:23:47;;;;;;;17.07;9.93;;;;;;;0.12;100.00;98448.44;4937581;29;20657;-84
2023/03/09 03:26:13;;;;;;;17.70;10.47;;;;;;;0.12;100.00;98458.91;4947133;29;20217;-85
2023/03/09 03:28:40;;;;;;;16.63;10.10;;;;;;;0.13;100.00;98471.06;4955688;28;20212;-84
2023/03/09 03:31:06;;;;;;;15.67;9.03;;;;;;;0.12;100.00;98474.63;4952151;28;20221;-84
2023/03/09 03:33:34;;;;;;;18.30;10.13;;;;;;;0.11;100.00;98472.94;4951771;29;20208;-83
2023/03/09 03:36:01;;;;;;;17.93;10.60;;;;;;;0.10;100.00;98476.47;4954924;28;20229;-85
2023/03/09 03:38:28;;;;;;;16.77;9.67;;;;;;;0.11;100.00;98475.53;4946547;29;20817;-84
2023/03/09 03:40:54;;;;;;;16.53;9.33;;;;;;;0.11;100.00;98483.41;4954585;29;20216;-84
2023/03/09 03:43:21;;;;;;;17.03;9.57;;;;;;;0.10;100.00;98487.78;4950535;29;20213;-85
2023/03/09 03:45:48;;;;;;;16.60;9.70;;;;;;;0.08;100.00;98499.25;4947746;29;20241;-83
2023/03/09 03:48:14;;;;;;;13.43;9.10;;;;;;;0.07;100.00;98521.97;4936342;29;20215;-84
2023/03/09 03:50:41;;;;;;;15.83;10.13;;;;;;;0.07;100.00;98526.34;4941642;29;20224;-84
2023/03/09 03:53:09;;;;;;;16.07;9.27;;;;;;;0.08;100.00;98521.03;4954569;29;20209;-83
2023/03/09 03:55:35;;;;;;;14.10;8.47;;;;;;;0.09;100.00;98516.66;4943142;29;20316;-85
2023/03/09 03:58:02;;;;;;;16.50;9.57;;;;;;;0.08;100.00;98523.66;4961812;28;20216;-83
2023/03/09 04:00:28;;;;;;;14.07;9.03;;;;;;;0.10;100.00;98528.81;4947319;29;20581;-84
2023/03/09 04:02:55;;;;;;;17.47;10.10;;;;;;;0.08;100.00;98526.28;4941964;29;20213;-83
2023/03/09 04:05:22;;;;;;;18.47;10.70;;;;;;;0.08;100.00;98523.66;4944037;29;20286;-83
2023/03/09 04:07:48;;;;;;;16.17;9.13;;;;;;;0.08;100.00;98528.03;4948898;29;20578;-84
2023/03/09 04:10:16;;;;;;;16.30;9.67;;;;;;;0.10;100.00;98534.88;4949519;29;20220;-83
2023/03/09 04:12:43;;;;;;;18.10;10.43;;;;;;;0.08;100.00;98536.75;4947335;29;20214;-83
2023/03/09 04:15:10;;;;;;;14.87;9.30;;;;;;;0.07;100.00;98549.91;4939487;29;20214;-84
2023/03/09 04:17:36;;;;;;;15.37;9.20;;;;;;;0.07;100.00;98563.00;4952276;29;20217;-84
2023/03/09 04:20:04;;;;;;;15.10;9.50;;;;;;;0.08;100.00;98567.31;4960632;28;20223;-84
2023/03/09 04:22:31;;;;;;;13.87;8.93;;;;;;;0.09;100.00;98561.16;4964457;28;21360;-85
2023/03/09 04:24:57;;;;;;;15.47;9.70;;;;;;;0.07;100.00;98561.22;4945310;29;20243;-83
2023/03/09 04:27:25;;;;;;;14.13;8.67;;;;;;;0.08;100.00;98555.06;4950833;29;20236;-83
2023/03/09 04:29:51;;;;;;;16.67;9.30;;;;;;;0.08;100.00;98555.06;4957997;29;20209;-83
2023/03/09 04:32:18;;;;;;;14.33;9.00;;;;;;;0.09;100.00;98556.75;4957156;29;20229;-83
2023/03/09 04:34:44;;;;;;;14.07;8.77;;;;;;;0.09;100.00;98564.59;4955848;29;20205;-83
2023/03/09 04:37:12;;;;;;;16.87;10.20;;;;;;;0.09;100.00;98580.31;4956841;29;20727;-83
2023/03/09 04:39:39;;;;;;;15.03;9.63;;;;;;;0.09;100.00;98587.31;4949626;29;20581;-82
2023/03/09 04:42:06;;;;;;;18.77;9.57;;;;;;;0.09;100.00;98600.41;4954380;29;20205;-82
2023/03/09 04:44:34;;;;;;;15.50;9.23;;;;;;;0.08;100.00;98598.72;4946708;29;20202;-82
2023/03/09 04:47:00;;;;;;;15.40;9.50;;;;;;;0.08;100.00;98609.19;4951367;29;20229;-83
2023/03/09 04:49:27;;;;;;;18.10;9.93;;;;;;;0.08;100.00;98604.78;4956944;28;20213;-82
2023/03/09 04:51:53;;;;;;;13.77;8.27;;;;;;;0.07;100.00;98607.50;4951569;28;20264;-83
2023/03/09 04:54:20;;;;;;;16.67;9.40;;;;;;;0.07;100.00;98597.88;4937801;29;20217;-83
2023/03/09 04:56:46;;;;;;;16.13;9.20;;;;;;;0.08;100.00;98577.78;4937625;29;20230;-83
2023/03/09 04:59:12;;;;;;;17.43;9.60;;;;;;;0.08;100.00;98578.63;4937835;29;20209;-83
2023/03/09 05:01:40;;;;;;;16.70;9.57;;;;;;;0.08;100.00;98576.00;4948894;29;20204;-83
2023/03/09 05:04:07;;;;;;;19.13;10.90;;;;;;;0.08;100.00;98578.63;4956779;29;20216;-82
2023/03/09 05:06:33;;;;;;;17.10;10.27;;;;;;;0.08;100.00;98593.47;4957137;29;20229;-82
2023/03/09 05:09:01;;;;;;;20.77;11.13;;;;;;;0.08;100.00;98610.03;4943348;29;20220;-84
2023/03/09 05:11:28;;;;;;;21.00;11.47;;;;;;;0.08;100.00;98615.25;4939730;29;20316;-82
2023/03/09 05:13:54;;;;;;;25.17;12.03;;;;;;;0.08;100.00;98620.50;4944623;29;20248;-82
2023/03/09 05:16:21;;;;;;;16.60;9.97;;;;;;;0.09;100.00;98629.19;4939055;29;20717;-82
2023/03/09 05:18:51;;;;;;;20.37;11.10;;;;;;;0.07;100.00;98631.03;4938112;29;20221;-83
2023/03/09 05:21:17;;;;;;;23.87;12.20;;;;;;;0.07;100.00;98624.03;4945778;29;20198;-83
2023/03/09 05:23:44;;;;;;;23.00;12.03;;;;;;;0.09;100.00;98624.81;4956533;29;20216;-83
2023/03/09 05:26:12;;;;;;;22.90;12.60;;;;;;;0.08;100.00;98625.72;4956640;29;20247;-82
2023/03/09 05:28:41;;;;;;;25.47;13.43;;;;;;;0.08;100.00;98636.19;4954874;29;20236;-82
2023/03/09 05:31:08;;;;;;;27.37;12.80;;;;;;;0.09;100.00;98637.03;4949133;28;20233;-83
2023/03/09 05:33:34;;;;;;;25.30;13.30;;;;;;;0.09;100.00;98650.13;4939704;29;20217;-82
2023/03/09 05:36:02;;;;;;;24.47;13.63;;;;;;;0.10;100.00;98660.53;4956775;29;20232;-83
2023/03/09 05:38:29;;;;;;;26.57;13.30;;;;;;;0.09;100.00;98663.22;4956809;29;20602;-83
2023/03/09 05:40:55;;;;;;;27.67;12.93;;;;;;;0.10;100.00;98678.00;4945736;29;20675;-83
2023/03/09 05:43:22;;;;;;;27.87;13.17;;;;;;;0.09;100.00;98681.53;4948190;29;20220;-83
2023/03/09 05:45:55;;;;;;;28.10;13.70;;;;;;;0.10;100.00;98672.75;4945620;29;20224;-83
2023/03/09 05:48:21;;;;;;;30.80;14.07;;;;;;;0.10;100.00;98664.91;4955899;29;20201;-83
2023/03/09 05:50:48;;;;;;;28.77;13.73;;;;;;;0.11;100.00;98677.06;4955762;29;20216;-83
2023/03/09 05:53:16;;;;;;;25.47;14.30;;;;;;;0.11;100.00;98683.16;4956676;29;20303;-85
2023/03/09 05:55:42;;;;;;;34.13;15.20;;;;;;;0.12;100.00;98676.16;4947457;29;20902;-83
2023/03/09 05:58:09;;;;;;;29.30;14.17;;;;;;;0.12;100.00;98682.22;4957016;29;20220;-83
2023/03/09 06:00:35;;;;;;;31.50;14.33;;;;;;;0.13;100.00;98685.69;4957082;29;20212;-82
2023/03/09 06:03:02;;;;;;;30.60;14.07;;;;;;;0.13;100.00;98680.47;4957577;29;20201;-82
2023/03/09 06:05:28;;;;;;;25.13;14.03;;;;;;;0.12;100.00;98697.94;4956523;29;20235;-83
2023/03/09 06:07:55;;;;;;;31.57;14.53;;;;;;;0.13;100.00;98717.94;4956871;29;20201;-82
2023/03/09 06:10:23;;;;;;;30.03;14.50;;;;;;;0.14;100.00;98710.94;4957317;29;20244;-82
2023/03/09 06:12:49;;;;;;;26.27;14.37;;;;;;;0.14;100.00;98717.03;4953364;28;20738;-82
2023/03/09 06:15:16;;;;;;;31.53;14.23;;;;;;;0.13;100.00;98710.09;4946762;28;20210;-82
2023/03/09 06:17:42;;;;;;;29.93;13.47;;;;;;;0.15;100.00;98718.72;4948878;28;20214;-83
2023/03/09 06:20:10;;;;;;;30.40;15.17;;;;;;;0.14;100.00;98724.03;4950877;28;20695;-83
2023/03/09 06:22:36;;;;;;;28.07;14.87;;;;;;;0.13;100.00;98736.28;4954895;28;20205;-83
2023/03/09 06:25:03;;;;;;;28.40;14.23;;;;;;;0.14;100.00;98732.72;4956653;29;20698;-82
2023/03/09 06:27:34;;;;;;;29.63;14.63;;;;;;;0.14;100.00;98734.50;4958295;29;20209;-83
2023/03/09 06:30:00;;;;;;;28.03;14.10;;;;;;;0.17;100.00;98726.50;4956366;29;20201;-83
2023/03/09 06:32:26;;;;;;;29.87;14.60;;;;;;;0.18;100.00;98721.16;4956309;28;20240;-82
2023/03/09 06:34:53;;;;;;;31.43;14.97;;;;;;;0.20;100.00;98739.41;4957094;29;20250;-82
2023/03/09 06:37:20;;;;;;;25.40;13.17;;;;;;;0.22;100.00;98735.78;4957145;29;20224;-83
2023/03/09 06:39:46;;;;;;;26.93;14.33;;;;;;;0.23;100.00;98739.25;4957229;29;20637;-83
2023/03/09 06:42:13;;;;;;;26.57;14.17;;;;;;;0.24;100.00;98739.16;4957406;29;20205;-83
2023/03/09 06:44:42;;;;;;;29.70;14.17;;;;;;;0.26;100.00;98752.19;4957495;28;20307;-82
2023/03/09 06:47:09;;;;;;;29.27;14.60;;;;;;;0.25;100.00;98743.47;4957991;29;20237;-82
2023/03/09 06:49:36;;;;;;;26.07;13.93;;;;;;;0.27;100.00;98738.16;4957574;29;20205;-84
2023/03/09 06:52:02;;;;;;;27.67;14.03;;;;;;;0.26;100.00;98739.09;4957306;29;20228;-82
2023/03/09 06:54:29;;;;;;;25.13;13.67;;;;;;;0.30;100.00;98748.50;4957152;29;20212;-85
2023/03/09 06:56:56;;;;;;;22.63;13.40;;;;;;;0.32;100.00;98754.50;4960071;28;20319;-85
2023/03/09 06:59:22;;;;;;;23.73;12.40;;;;;;;0.33;100.00;98753.56;4958910;29;20209;-84
2023/03/09 07:01:50;;;;;;;25.50;13.97;;;;;;;0.34;100.00;98765.75;4958868;29;20215;-85
2023/03/09 07:04:17;;;;;;;43.10;15.77;;;;;;;0.33;100.00;98767.50;4958916;29;20713;-84
2023/03/09 07:06:44;;;;;;;24.30;12.50;;;;;;;0.36;100.00;98761.25;4956353;29;20237;-84
2023/03/09 07:09:10;;;;;;;23.97;13.80;;;;;;;0.39;100.00;98782.03;4956457;29;20213;-83
2023/03/09 07:11:37;;;;;;;23.70;13.17;;;;;;;0.41;100.00;98795.91;4956850;29;20726;-83
2023/03/09 07:14:03;;;;;;;23.47;12.43;;;;;;;0.44;100.00;98805.38;4956416;29;20212;-84
2023/03/09 07:16:30;;;;;;;26.00;13.70;;;;;;;0.46;100.00;98804.38;4957112;29;20236;-85
2023/03/09 07:18:58;;;;;;;21.27;12.67;;;;;;;0.48;100.00;98799.91;4956391;29;20668;-83
2023/03/09 07:21:25;;;;;;;25.80;13.53;;;;;;;0.52;100.00;98803.22;4957199;28;20196;-83
2023/03/09 07:23:51;;;;;;;27.17;13.77;;;;;;;0.52;100.00;98808.47;4956710;29;20228;-83
2023/03/09 07:26:20;;;;;;;20.03;12.40;;;;;;;0.53;100.00;98815.38;4957362;29;20315;-84
2023/03/09 07:28:47;;;;;;;23.43;12.97;;;;;;;0.56;100.00;98817.81;4956606;29;20245;-84
2023/03/09 07:31:14;;;;;;;24.53;13.00;;;;;;;0.56;100.00;98820.44;4957460;29;20204;-83
2023/03/09 07:33:41;;;;;;;23.47;13.00;;;;;;;0.58;100.00;98819.44;4957538;29;20220;-83
2023/03/09 07:36:10;;;;;;;20.77;11.97;;;;;;;0.59;100.00;98822.91;4957237;29;20225;-84
2023/03/09 07:38:36;;;;;;;22.87;12.57;;;;;;;0.62;100.00;98823.59;4956194;29;20219;-85
2023/03/09 07:41:03;;;;;;;25.53;13.03;;;;;;;0.63;100.00;98832.31;4957742;29;20204;-85
2023/03/09 07:43:30;;;;;;;19.60;11.97;;;;;;;0.64;100.00;98839.25;4957448;28;20213;-85
2023/03/09 07:45:56;;;;;;;22.60;13.07;;;;;;;0.66;100.00;98842.63;4960423;29;20231;-84
2023/03/09 07:48:23;;;;;;;22.03;12.47;;;;;;;0.65;100.00;98859.28;4960366;29;20238;-84
2023/03/09 07:50:58;;;;;;;20.43;11.90;;;;;;;0.67;100.00;98862.66;4960630;29;20204;-84
2023/03/09 07:53:26;;;;;;;21.23;12.30;;;;;;;0.67;100.00;98860.91;4960161;29;20235;-84
2023/03/09 07:55:55;;;;;;;22.63;13.10;;;;;;;0.68;100.00;98867.00;4960370;29;20225;-84
2023/03/09 07:58:22;;;;;;;19.43;11.70;;;;;;;0.68;100.00;98859.97;4959705;29;20204;-84
2023/03/09 08:00:48;;;;;;;19.70;12.03;;;;;;;0.66;100.00;98864.44;4960379;29;20201;-84
2023/03/09 08:03:15;;;;;;;21.80;12.13;;;;;;;0.67;100.00;98868.75;4960518;29;20212;-84
2023/03/09 08:05:42;;;;;;;21.47;12.77;;;;;;;0.68;100.00;98870.44;4960877;29;20229;-83
2023/03/09 08:08:09;;;;;;;20.93;12.97;;;;;;;0.69;100.00;98874.78;4960159;29;20617;-83
2023/03/09 08:10:36;;;;;;;21.20;12.87;;;;;;;0.73;100.00;98877.22;4960325;29;20205;-85
2023/03/09 08:13:03;;;;;;;20.77;12.37;;;;;;;0.76;100.00;98877.06;4960138;29;20255;-84
2023/03/09 08:15:30;;;;;;;20.13;11.73;;;;;;;0.76;100.00;98875.28;4960262;29;20229;-84
2023/03/09 08:17:56;;;;;;;23.33;12.90;;;;;;;0.77;100.00;98887.47;4959072;29;20208;-85
2023/03/09 08:20:23;;;;;;;21.00;11.33;;;;;;;0.81;100.00;98882.91;4959476;29;20299;-86
2023/03/09 08:22:49;;;;;;;19.80;11.97;;;;;;;0.81;100.00;98888.16;4959382;29;20657;-85
2023/03/09 08:25:16;;;;;;;21.03;12.07;;;;;;;0.79;100.00;98890.84;4960015;29;20212;-86
2023/03/09 08:27:46;;;;;;;20.93;11.27;;;;;;;0.81;100.00;98886.38;4959663;28;20268;-85
2023/03/09 08:30:14;;;;;;;16.83;10.60;;;;;;;0.79;100.00;98903.94;4960220;29;20566;-85
2023/03/09 08:32:42;;;;;;;20.17;12.23;;;;;;;0.81;100.00;98911.75;4959472;29;20228;-84
2023/03/09 08:35:09;;;;;;;20.63;11.53;;;;;;;0.79;100.00;98905.72;4959931;28;20683;-85
2023/03/09 08:37:36;;;;;;;17.53;11.30;;;;;;;0.81;100.00;98909.13;4960185;29;20295;-86
2023/03/09 08:40:03;;;;;;;18.83;11.63;;;;;;;0.83;100.00;98908.13;4960587;29;20212;-86
2023/03/09 08:42:30;;;;;;;24.50;12.50;;;;;;;0.85;100.00;98910.66;4960417;29;20227;-85
2023/03/09 08:44:58;;;;;;;20.50;11.97;;;;;;;0.87;100.00;98916.66;4960483;29;20216;-84
2023/03/09 08:47:24;;;;;;;18.00;11.37;;;;;;;0.86;100.00;98907.13;4959169;29;20233;-85
2023/03/09 08:49:51;;;;;;;22.60;13.03;;;;;;;0.86;100.00;98923.69;4959558;29;20197;-84
2023/03/09 08:52:17;;;;;;;19.37;11.37;;;;;;;0.89;100.00;98925.31;4960161;29;20576;-84
2023/03/09 08:54:44;;;;;;;17.13;10.80;;;;;;;0.88;100.00;98931.47;4959648;28;20236;-84
2023/03/09 08:57:11;;;;;;;18.90;11.73;;;;;;;0.87;100.00;98935.88;4958972;29;20232;-84
2023/03/09 08:59:38;;;;;;;21.03;11.67;;;;;;;0.90;100.00;98948.78;4958967;29;20209;-86
2023/03/09 09:02:06;;;;;;;19.33;11.27;;;;;;;0.90;100.00;98956.66;4959328;29;20209;-86
2023/03/09 09:04:33;;;;;;;17.90;10.83;;;;;;;0.90;100.00;98967.13;4959284;29;20675;-85
2023/03/09 09:07:00;;;;;;;18.00;11.13;;;;;;;0.91;100.00;98973.22;4958855;29;20271;-85
2023/03/09 09:09:27;;;;;;;16.73;11.23;;;;;;;0.93;100.00;98974.00;4959321;29;20241;-85
2023/03/09 09:11:53;;;;;;;18.57;12.13;;;;;;;0.93;100.00;98971.38;4958810;29;20216;-85
2023/03/09 09:14:20;;;;;;;16.47;10.80;;;;;;;0.94;100.00;98968.69;4958772;29;20296;-85
2023/03/09 09:16:46;;;;;;;18.03;11.07;;;;;;;0.94;100.00;98959.97;4959540;29;20231;-84
2023/03/09 09:19:14;;;;;;;18.77;11.53;;;;;;;0.96;100.00;98960.75;4959868;29;20700;-85
2023/03/09 09:21:41;;;;;;;17.17;11.00;;;;;;;0.96;100.00;98971.22;4959863;28;20205;-85
2023/03/09 09:24:08;;;;;;;18.30;11.60;;;;;;;0.99;100.00;98976.31;4959178;29;20227;-84
2023/03/09 09:26:35;;;;;;;21.13;13.03;;;;;;;0.97;100.00;98970.31;4960242;29;20239;-86
2023/03/09 09:29:02;;;;;;;19.03;11.93;;;;;;;1.00;100.00;98957.03;4959477;29;20299;-84
2023/03/09 09:31:29;;;;;;;21.57;11.30;;;;;;;1.01;100.00;98964.84;4960109;29;20228;-85
2023/03/09 09:33:57;;;;;;;16.63;11.13;;;;;;;1.03;100.00;98972.63;4959193;29;20311;-84
2023/03/09 09:36:26;;;;;;;17.40;11.10;;;;;;;1.05;100.00;98976.00;4959358;29;20664;-84
2023/03/09 09:38:53;;;;;;;18.97;11.87;;;;;;;1.05;100.00;98976.00;4958884;29;20695;-85
2023/03/09 09:41:25;;;;;;;18.70;11.27;;;;;;;1.06;100.00;98971.63;4958425;29;20220;-86
2023/03/09 09:43:56;;;;;;;17.60;11.40;;;;;;;1.08;100.00;98982.84;4958613;29;20193;-86
2023/03/09 09:46:24;;;;;;;18.67;11.13;;;;;;;1.10;100.00;98994.09;4959723;28;20237;-86
2023/03/09 09:48:51;;;;;;;19.17;11.90;;;;;;;1.10;100.00;98996.72;4960198;29;20209;-86
2023/03/09 09:51:43;;;;;;;20.57;10.53;;;;;;;1.09;100.00;98993.25;4960329;29;20221;-86
2023/03/09 09:54:16;;;;;;;19.63;11.40;;;;;;;1.13;100.00;98997.44;4959491;29;20220;-86
2023/03/09 09:56:50;;;;;;;18.60;11.80;;;;;;;1.12;100.00;98995.72;4960031;29;20662;-85
2023/03/09 09:59:24;;;;;;;19.13;11.37;;;;;;;1.16;100.00;99002.53;4959852;28;20295;-86
2023/03/09 10:01:56;;;;;;;20.17;11.60;;;;;;;1.16;100.00;99006.91;4958463;29;20185;-86
2023/03/09 10:04:29;;;;;;;18.93;10.67;;;;;;;1.17;100.00;98990.25;4958515;29;20644;-86
2023/03/09 10:07:01;;;;;;;18.37;11.83;;;;;;;1.20;100.00;98995.34;4958644;28;20233;-85
2023/03/09 10:09:33;;;;;;;19.13;11.43;;;;;;;1.23;100.00;98996.03;4959392;29;20560;-85
2023/03/09 10:12:06;;;;;;;18.57;11.43;;;;;;;1.27;100.00;99000.19;4958533;29;20658;-84
2023/03/09 10:14:37;;;;;;;19.80;12.30;;;;;;;1.30;100.00;99007.91;4958660;29;20193;-85
2023/03/09 10:17:07;;;;;;;20.57;11.70;;;;;;;1.35;100.00;99011.13;4959092;29;20224;-86
2023/03/09 10:19:38;;;;;;;18.20;11.70;;;;;;;1.37;100.00;99013.69;4959712;29;20669;-86
2023/03/09 10:22:16;;;;;;;19.90;12.20;;;;;;;1.41;100.00;99012.59;4958731;29;20541;-85
2023/03/09 10:24:45;;;;;;;20.60;12.10;;;;;;;1.44;100.00;99009.78;4955908;28;20224;-87
2023/03/09 10:27:20;;;;;;;19.87;12.20;;;;;;;1.45;100.00;99016.72;4955886;29;20634;-88
2023/03/09 10:29:52;;;;;;;20.90;12.43;;;;;;;1.49;100.00;99022.69;4961804;28;20209;-88
2023/03/09 10:32:21;;;;;;;18.57;11.97;;;;;;;1.54;100.00;99028.53;4954524;28;20208;-87
2023/03/09 10:34:56;;;;;;;20.07;11.40;;;;;;;1.60;100.00;99029.06;4948014;29;20213;-87
2023/03/09 10:37:26;;;;;;;19.67;12.07;;;;;;;1.65;100.00;99026.19;4949614;28;20223;-86
2023/03/09 10:39:53;;;;;;;17.67;11.53;;;;;;;1.71;100.00;99026.72;4948883;29;20201;-89
2023/03/09 10:42:24;;;;;;;21.80;11.70;;;;;;;1.78;100.00;99032.50;4947953;28;20225;-89
2023/03/09 10:45:05;;;;;;;18.47;11.33;;;;;;;1.85;100.00;99030.38;4960559;29;20288;-85
2023/03/09 10:47:52;;;;;;;17.77;10.93;;;;;;;1.86;100.00;99022.44;4956748;29;20641;-85
2023/03/09 10:50:21;;;;;;;19.27;11.60;;;;;;;1.86;100.00;99025.06;4953664;29;20205;-86
2023/03/09 10:52:49;;;;;;;18.63;10.80;;;;;;;1.87;100.00;99037.25;4942368;29;20250;-86
2023/03/09 11:01:22;;;;;;;22.30;11.67;;;;;;;1.86;100.00;99040.81;4937655;29;20205;-86
2023/03/09 11:03:49;;;;;;;18.33;10.90;;;;;;;1.85;100.00;99041.72;4940069;29;20227;-87
2023/03/09 11:06:34;;;;;;;19.37;11.00;;;;;;;1.86;100.00;99043.44;4938955;29;20746;-86
2023/03/09 11:09:11;;;;;;;17.33;11.67;;;;;;;1.84;100.00;99053.16;4951134;29;20228;-85
2023/03/09 11:11:38;;;;;;;22.33;12.20;;;;;;;1.87;100.00;99074.00;4954742;29;20555;-86
2023/03/09 11:14:05;;;;;;;18.90;11.77;;;;;;;1.89;100.00;99074.75;4954508;29;20228;-86
2023/03/09 11:16:34;;;;;;;21.00;12.13;;;;;;;1.92;100.00;99076.38;4954693;29;20224;-88
2023/03/09 11:19:07;;;;;;;23.73;12.20;;;;;;;1.93;100.00;99068.44;4954123;28;20240;-88
2023/03/09 11:21:35;;;;;;;21.43;12.47;;;;;;;1.95;100.00;99074.44;4955047;29;20185;-89
2023/03/09 11:24:04;;;;;;;20.03;12.03;;;;;;;1.99;100.00;99073.34;4954740;29;20216;-89
2023/03/09 11:26:35;;;;;;;19.70;11.90;;;;;;;2.00;100.00;99071.56;4955309;29;20225;-88
2023/03/09 11:29:18;;;;;;;17.63;11.43;;;;;;;2.00;100.00;99071.56;4955136;29;20189;-87